createdAt,value
2017-11-04T00:00:36.966Z,90.4
2017-11-04T00:01:40.094Z,90.5
2017-11-04T00:02:42.869Z,90.4
2017-11-04T00:03:45.306Z,90.5
2017-11-04T00:04:47.731Z,90.5
2017-11-04T00:05:50.153Z,90.5
2017-11-04T00:06:52.588Z,90.6
2017-11-04T00:07:55.008Z,90.6
2017-11-04T00:08:57.433Z,90.6
2017-11-04T00:09:59.875Z,90.6
2017-11-04T00:11:02.300Z,90.6
2017-11-04T00:12:04.726Z,90.6
2017-11-04T00:13:07.159Z,90.6
2017-11-04T00:14:09.586Z,90.6
2017-11-04T00:15:12.009Z,90.7
2017-11-04T00:16:14.434Z,90.7
2017-11-04T00:17:16.847Z,90.7
2017-11-04T00:18:19.281Z,90.7
2017-11-04T00:19:22.059Z,90.7
2017-11-04T00:20:24.850Z,90.7
2017-11-04T00:21:27.633Z,90.8
2017-11-04T00:22:30.052Z,90.8
2017-11-04T00:23:32.475Z,90.8
2017-11-04T00:24:34.904Z,90.8
2017-11-04T00:25:37.320Z,90.8
2017-11-04T00:26:39.750Z,90.7
2017-11-04T00:27:42.174Z,90.8
2017-11-04T00:28:44.613Z,90.8
2017-11-04T00:29:47.039Z,90.7
2017-11-04T00:30:49.466Z,90.7
2017-11-04T00:31:51.892Z,90.7
2017-11-04T00:32:54.313Z,90.7
2017-11-04T00:33:56.729Z,90.8
2017-11-04T00:34:59.164Z,90.8
2017-11-04T00:36:01.585Z,90.8
2017-11-04T00:37:04.009Z,90.7
2017-11-04T00:38:06.440Z,90.7
2017-11-04T00:39:08.868Z,90.7
2017-11-04T00:40:11.652Z,90.7
2017-11-04T00:41:14.083Z,90.7
2017-11-04T00:42:16.502Z,90.7
2017-11-04T00:43:18.925Z,90.7
2017-11-04T00:44:21.357Z,90.7
2017-11-04T00:45:23.775Z,90.7
2017-11-04T00:46:26.193Z,90.7
2017-11-04T00:47:28.616Z,90.8
2017-11-04T00:48:31.417Z,90.8
2017-11-04T00:49:33.858Z,90.8
2017-11-04T00:50:36.636Z,90.8
2017-11-04T00:51:39.057Z,90.9
2017-11-04T00:52:41.484Z,90.9
2017-11-04T00:53:43.902Z,90.9
2017-11-04T00:54:46.332Z,90.9
2017-11-04T00:55:48.758Z,90.9
2017-11-04T00:56:51.179Z,90.8
2017-11-04T00:57:53.626Z,90.8
2017-11-04T00:58:56.047Z,90.8
2017-11-04T00:59:58.479Z,90.8
2017-11-04T01:01:00.909Z,90.8
2017-11-04T01:02:03.325Z,90.8
2017-11-04T01:03:05.750Z,90.8
2017-11-04T01:04:08.175Z,90.8
2017-11-04T01:05:10.603Z,90.8
2017-11-04T01:06:13.041Z,90.9
2017-11-04T01:07:15.473Z,90.9
2017-11-04T01:08:17.895Z,90.9
2017-11-04T01:09:20.330Z,90.9
2017-11-04T01:10:23.096Z,90.9
2017-11-04T01:11:25.523Z,90.9
2017-11-04T01:12:27.941Z,90.8
2017-11-04T01:13:30.368Z,90.9
2017-11-04T01:14:33.140Z,90.9
2017-11-04T01:15:35.572Z,90.8
2017-11-04T01:16:37.991Z,90.9
2017-11-04T01:17:40.415Z,90.9
2017-11-04T01:18:42.835Z,90.8
2017-11-04T01:19:45.617Z,90.8
2017-11-04T01:20:48.050Z,90.8
2017-11-04T01:21:50.485Z,90.8
2017-11-04T01:22:52.902Z,90.8
2017-11-04T01:23:55.342Z,90.8
2017-11-04T01:24:57.768Z,90.7
2017-11-04T01:26:00.199Z,90.7
2017-11-04T01:27:02.633Z,90.7
2017-11-04T01:28:05.058Z,90.7
2017-11-04T01:29:07.483Z,90.7
2017-11-04T01:30:09.916Z,90.7
2017-11-04T01:31:12.335Z,90.7
2017-11-04T01:32:14.758Z,90.7
2017-11-04T01:33:17.196Z,90.7
2017-11-04T01:34:19.620Z,90.7
2017-11-04T01:35:22.047Z,90.7
2017-11-04T01:36:24.471Z,90.7
2017-11-04T01:37:26.896Z,90.7
2017-11-04T01:38:29.313Z,90.7
2017-11-04T01:39:31.737Z,90.7
2017-11-04T01:40:34.160Z,90.7
2017-11-04T01:41:36.570Z,90.6
2017-11-04T01:42:38.988Z,90.6
2017-11-04T01:43:41.430Z,90.6
2017-11-04T01:44:43.850Z,90.6
2017-11-04T01:45:46.276Z,90.6
2017-11-04T01:46:48.701Z,90.5
2017-11-04T01:47:51.118Z,90.5
2017-11-04T01:48:53.576Z,90.5
2017-11-04T01:49:56.002Z,90.5
2017-11-04T01:50:58.423Z,90.6
2017-11-04T01:52:00.851Z,90.6
2017-11-04T01:53:03.270Z,90.6
2017-11-04T01:54:05.697Z,90.7
2017-11-04T01:55:08.480Z,90.7
2017-11-04T01:56:10.897Z,90.7
2017-11-04T01:57:13.317Z,90.7
2017-11-04T01:58:15.750Z,90.6
2017-11-04T01:59:18.172Z,90.6
2017-11-04T02:00:20.595Z,90.5
2017-11-04T02:01:23.031Z,90.5
2017-11-04T02:02:25.455Z,90.5
2017-11-04T02:03:27.882Z,90.4
2017-11-04T02:04:30.310Z,90.4
2017-11-04T02:05:33.096Z,90.4
2017-11-04T02:06:35.511Z,90.4
2017-11-04T02:07:37.954Z,90.3
2017-11-04T02:08:40.374Z,90.3
2017-11-04T02:09:42.798Z,90.4
2017-11-04T02:10:45.223Z,90.4
2017-11-04T02:11:47.667Z,90.4
2017-11-04T02:12:50.109Z,90.3
2017-11-04T02:13:52.549Z,90.3
2017-11-04T02:14:55.351Z,90.2
2017-11-04T02:15:57.786Z,90.2
2017-11-04T02:17:00.202Z,90.1
2017-11-04T02:18:02.647Z,90.1
2017-11-04T02:19:05.072Z,90.2
2017-11-04T02:20:07.501Z,90.2
2017-11-04T02:21:09.925Z,90.2
2017-11-04T02:22:12.367Z,90.1
2017-11-04T02:23:14.783Z,90.2
2017-11-04T02:24:17.214Z,90.1
2017-11-04T02:25:19.635Z,90.1
2017-11-04T02:26:22.070Z,90.2
2017-11-04T02:27:24.497Z,90.1
2017-11-04T02:28:27.282Z,90.1
2017-11-04T02:29:29.697Z,90.2
2017-11-04T02:30:32.476Z,90.1
2017-11-04T02:31:34.918Z,90.2
2017-11-04T02:32:37.346Z,90.2
2017-11-04T02:33:39.750Z,90.2
2017-11-04T02:34:42.173Z,90.2
2017-11-04T02:35:44.585Z,90.1
2017-11-04T02:36:47.011Z,90
2017-11-04T02:37:49.799Z,90
2017-11-04T02:38:52.570Z,89.9
2017-11-04T02:39:55.002Z,89.9
2017-11-04T02:40:57.442Z,89.7
2017-11-04T02:41:59.865Z,89.6
2017-11-04T02:43:02.658Z,89.6
2017-11-04T02:44:05.083Z,89.5
2017-11-04T02:45:07.506Z,89.5
2017-11-04T02:46:09.935Z,89.6
2017-11-04T02:47:12.375Z,89.5
2017-11-04T02:48:14.794Z,89.5
2017-11-04T02:49:17.229Z,89.5
2017-11-04T02:50:19.657Z,89.4
2017-11-04T02:51:22.454Z,89.5
2017-11-04T02:52:24.880Z,89.6
2017-11-04T02:53:27.297Z,89.5
2017-11-04T02:54:29.717Z,89.6
2017-11-04T02:55:32.156Z,89.6
2017-11-04T02:56:34.579Z,89.6
2017-11-04T02:57:36.997Z,89.7
2017-11-04T02:58:39.425Z,89.6
2017-11-04T02:59:41.859Z,89.7
2017-11-04T03:00:44.278Z,89.8
2017-11-04T03:01:47.092Z,89.8
2017-11-04T03:02:49.551Z,89.8
2017-11-04T03:03:51.975Z,89.8
2017-11-04T03:04:54.383Z,89.9
2017-11-04T03:05:56.807Z,89.9
2017-11-04T03:06:59.247Z,90
2017-11-04T03:08:01.671Z,90
2017-11-04T03:09:04.102Z,89.9
2017-11-04T03:10:06.920Z,90
2017-11-04T03:11:09.347Z,90
2017-11-04T03:12:12.140Z,90
2017-11-04T03:13:14.558Z,90
2017-11-04T03:14:17.323Z,90
2017-11-04T03:15:19.757Z,90
2017-11-04T03:16:22.179Z,90
2017-11-04T03:17:24.615Z,90
2017-11-04T03:18:27.392Z,90
2017-11-04T03:19:29.805Z,90
2017-11-04T03:20:32.225Z,90
2017-11-04T03:21:34.657Z,90
2017-11-04T03:22:37.074Z,90
2017-11-04T03:23:39.494Z,90.1
2017-11-04T03:24:41.913Z,90
2017-11-04T03:25:44.338Z,90
2017-11-04T03:26:46.770Z,90
2017-11-04T03:27:49.198Z,90
2017-11-04T03:28:51.604Z,90
2017-11-04T03:29:54.023Z,90
2017-11-04T03:30:56.808Z,90
2017-11-04T03:31:59.221Z,90
2017-11-04T03:33:02.379Z,90
2017-11-04T03:34:04.802Z,90
2017-11-04T03:35:07.226Z,90
2017-11-04T03:36:09.994Z,90.1
2017-11-04T03:37:12.430Z,90
2017-11-04T03:38:14.853Z,90
2017-11-04T03:39:17.281Z,90
2017-11-04T03:40:19.709Z,90.1
2017-11-04T03:41:22.130Z,90
2017-11-04T03:42:24.550Z,90.1
2017-11-04T03:43:27.334Z,90.1
2017-11-04T03:44:30.107Z,90.2
2017-11-04T03:45:32.536Z,90.1
2017-11-04T03:46:34.949Z,90.1
2017-11-04T03:47:37.375Z,90.1
2017-11-04T03:48:39.792Z,90.1
2017-11-04T03:49:42.218Z,90.1
2017-11-04T03:50:44.639Z,90.1
2017-11-04T03:51:47.068Z,90.1
2017-11-04T03:52:49.487Z,90.1
2017-11-04T03:53:51.926Z,90.2
2017-11-04T03:54:54.352Z,90.2
2017-11-04T03:55:56.778Z,90.2
2017-11-04T03:56:59.210Z,90.1
2017-11-04T03:58:01.646Z,90.1
2017-11-04T03:59:04.052Z,90.1
2017-11-04T04:00:06.497Z,90.1
2017-11-04T04:01:08.917Z,90.1
2017-11-04T04:02:11.329Z,90
2017-11-04T04:03:13.765Z,90
2017-11-04T04:04:16.185Z,90.1
2017-11-04T04:05:18.615Z,90.1
2017-11-04T04:06:21.040Z,90.1
2017-11-04T04:07:23.457Z,90.1
2017-11-04T04:08:25.883Z,90
2017-11-04T04:09:28.321Z,90
2017-11-04T04:10:30.734Z,90
2017-11-04T04:11:33.153Z,90
2017-11-04T04:12:35.577Z,90
2017-11-04T04:13:37.998Z,90.1
2017-11-04T04:14:40.775Z,90
2017-11-04T04:15:43.196Z,90
2017-11-04T04:16:45.623Z,90
2017-11-04T04:17:48.074Z,90
2017-11-04T04:18:50.498Z,90
2017-11-04T04:19:52.927Z,90
2017-11-04T04:20:55.338Z,90
2017-11-04T04:21:58.121Z,90
2017-11-04T04:23:00.544Z,90
2017-11-04T04:24:02.965Z,90
2017-11-04T04:25:05.384Z,90
2017-11-04T04:26:07.815Z,90
2017-11-04T04:27:10.227Z,90
2017-11-04T04:28:12.659Z,89.9
2017-11-04T04:29:15.077Z,89.9
2017-11-04T04:30:17.506Z,90
2017-11-04T04:31:19.923Z,90
2017-11-04T04:32:22.346Z,90
2017-11-04T04:33:24.768Z,90
2017-11-04T04:34:27.203Z,90
2017-11-04T04:35:29.628Z,90
2017-11-04T04:36:32.048Z,90
2017-11-04T04:37:34.477Z,90
2017-11-04T04:38:36.897Z,90
2017-11-04T04:39:39.326Z,90
2017-11-04T04:40:41.749Z,90
2017-11-04T04:41:44.522Z,90.1
2017-11-04T04:42:46.955Z,90
2017-11-04T04:43:49.379Z,90.1
2017-11-04T04:44:52.147Z,90
2017-11-04T04:45:54.570Z,90
2017-11-04T04:46:57.003Z,90
2017-11-04T04:47:59.426Z,90
2017-11-04T04:49:01.854Z,90
2017-11-04T04:50:04.283Z,90
2017-11-04T04:51:06.712Z,90
2017-11-04T04:52:09.526Z,90
2017-11-04T04:53:11.945Z,90
2017-11-04T04:54:14.357Z,90.1
2017-11-04T04:55:16.784Z,90
2017-11-04T04:56:19.559Z,90.1
2017-11-04T04:57:21.981Z,90.1
2017-11-04T04:58:24.406Z,90.1
2017-11-04T04:59:26.827Z,90
2017-11-04T05:00:29.265Z,90
2017-11-04T05:01:31.676Z,90
2017-11-04T05:02:34.107Z,90
2017-11-04T05:03:36.536Z,90
2017-11-04T05:04:39.315Z,90.1
2017-11-04T05:05:41.737Z,90.1
2017-11-04T05:06:44.159Z,90.1
2017-11-04T05:07:46.571Z,90.1
2017-11-04T05:08:49.009Z,90
2017-11-04T05:09:51.433Z,90
2017-11-04T05:10:53.851Z,90.1
2017-11-04T05:11:56.280Z,90.1
2017-11-04T05:12:58.699Z,90.1
2017-11-04T05:14:01.120Z,90.1
2017-11-04T05:15:03.543Z,90.1
2017-11-04T05:16:05.963Z,90
2017-11-04T05:17:08.380Z,90
2017-11-04T05:18:10.818Z,90
2017-11-04T05:19:13.242Z,90
2017-11-04T05:20:15.654Z,90
2017-11-04T05:21:18.077Z,90
2017-11-04T05:22:20.494Z,90
2017-11-04T05:23:23.275Z,90.1
2017-11-04T05:24:25.713Z,90.1
2017-11-04T05:25:28.138Z,90.1
2017-11-04T05:26:30.569Z,90.1
2017-11-04T05:27:33.009Z,90
2017-11-04T05:28:35.431Z,90
2017-11-04T05:29:37.862Z,90
2017-11-04T05:30:40.291Z,90
2017-11-04T05:31:42.719Z,90
2017-11-04T05:32:45.137Z,90
2017-11-04T05:33:47.554Z,90
2017-11-04T05:34:49.993Z,90
2017-11-04T05:35:52.409Z,90
2017-11-04T05:36:54.822Z,90.1
2017-11-04T05:37:57.251Z,90
2017-11-04T05:38:59.684Z,90
2017-11-04T05:40:02.121Z,90
2017-11-04T05:41:04.547Z,90
2017-11-04T05:42:06.951Z,90
2017-11-04T05:43:09.390Z,90
2017-11-04T05:44:12.179Z,90.1
2017-11-04T05:45:14.612Z,90
2017-11-04T05:46:17.033Z,90.1
2017-11-04T05:47:19.454Z,90.1
2017-11-04T05:48:21.878Z,90
2017-11-04T05:49:24.304Z,90.1
2017-11-04T05:50:26.715Z,90.1
2017-11-04T05:51:29.144Z,90.1
2017-11-04T05:52:31.562Z,90.1
2017-11-04T05:53:33.981Z,90.1
2017-11-04T05:54:36.764Z,90.1
2017-11-04T05:55:39.191Z,90
2017-11-04T05:56:41.608Z,90.1
2017-11-04T05:57:44.399Z,90.1
2017-11-04T05:58:47.155Z,90
2017-11-04T05:59:49.582Z,90.1
2017-11-04T06:00:52.384Z,90.1
2017-11-04T06:01:54.802Z,90.1
2017-11-04T06:02:57.228Z,90.2
2017-11-04T06:03:59.651Z,90.1
2017-11-04T06:05:02.068Z,90.1
2017-11-04T06:06:04.867Z,90.2
2017-11-04T06:07:07.298Z,90.2
2017-11-04T06:08:09.708Z,90.1
2017-11-04T06:09:12.133Z,90.1
2017-11-04T06:10:14.561Z,90.2
2017-11-04T06:11:16.979Z,90.2
2017-11-04T06:12:19.402Z,90.2
2017-11-04T06:13:21.818Z,90.2
2017-11-04T06:14:24.237Z,90.2
2017-11-04T06:15:26.667Z,90.3
2017-11-04T06:16:29.084Z,90.3
2017-11-04T06:17:31.866Z,90.2
2017-11-04T06:18:34.289Z,90.2
2017-11-04T06:19:36.708Z,90.2
2017-11-04T06:20:39.132Z,90.2
2017-11-04T06:21:41.547Z,90.2
2017-11-04T06:22:43.962Z,90.2
2017-11-04T06:23:46.394Z,90.2
2017-11-04T06:24:48.826Z,90.3
2017-11-04T06:25:51.345Z,90.3
2017-11-04T06:26:53.774Z,90.3
2017-11-04T06:27:56.198Z,90.3
2017-11-04T06:28:58.620Z,90.4
2017-11-04T06:30:01.039Z,90.3
2017-11-04T06:31:03.469Z,90.4
2017-11-04T06:32:05.888Z,90.3
2017-11-04T06:33:08.315Z,90.4
2017-11-04T06:34:10.729Z,90.4
2017-11-04T06:35:13.515Z,90.4
2017-11-04T06:36:15.945Z,90.4
2017-11-04T06:37:18.366Z,90.4
2017-11-04T06:38:20.787Z,90.4
2017-11-04T06:39:23.220Z,90.3
2017-11-04T06:40:26.348Z,90.4
2017-11-04T06:41:28.779Z,90.4
2017-11-04T06:42:31.197Z,90.5
2017-11-04T06:43:33.630Z,90.5
2017-11-04T06:44:36.045Z,90.5
2017-11-04T06:45:38.460Z,90.5
2017-11-04T06:46:40.884Z,90.5
2017-11-04T06:47:43.301Z,90.5
2017-11-04T06:48:45.717Z,90.4
2017-11-04T06:49:48.153Z,90.4
2017-11-04T06:50:50.560Z,90.4
2017-11-04T06:51:52.982Z,90.4
2017-11-04T06:52:55.410Z,90.4
2017-11-04T06:53:58.199Z,90.5
2017-11-04T06:55:00.623Z,90.5
2017-11-04T06:56:03.052Z,90.6
2017-11-04T06:57:05.486Z,90.4
2017-11-04T06:58:07.897Z,90.4
2017-11-04T06:59:10.319Z,90.4
2017-11-04T07:00:12.733Z,90.4
2017-11-04T07:01:15.515Z,90.4
2017-11-04T07:02:17.935Z,90.5
2017-11-04T07:03:20.368Z,90.5
2017-11-04T07:04:23.136Z,90.5
2017-11-04T07:05:25.570Z,90.5
2017-11-04T07:06:27.980Z,90.5
2017-11-04T07:07:30.408Z,90.5
2017-11-04T07:08:32.827Z,90.5
2017-11-04T07:09:35.251Z,90.5
2017-11-04T07:10:37.671Z,90.6
2017-11-04T07:11:40.097Z,90.6
2017-11-04T07:12:42.516Z,90.6
2017-11-04T07:13:44.956Z,90.5
2017-11-04T07:14:47.374Z,90.6
2017-11-04T07:15:49.815Z,90.5
2017-11-04T07:16:52.582Z,90.6
2017-11-04T07:17:55.011Z,90.6
2017-11-04T07:18:57.439Z,90.6
2017-11-04T07:19:59.857Z,90.6
2017-11-04T07:21:02.286Z,90.5
2017-11-04T07:22:05.066Z,90.6
2017-11-04T07:23:07.834Z,90.6
2017-11-04T07:24:10.276Z,90.6
2017-11-04T07:25:13.049Z,90.6
2017-11-04T07:26:15.466Z,90.5
2017-11-04T07:27:17.888Z,90.6
2017-11-04T07:28:20.310Z,90.6
2017-11-04T07:29:22.721Z,90.6
2017-11-04T07:30:25.145Z,90.6
2017-11-04T07:31:27.780Z,90.6
2017-11-04T07:32:30.205Z,90.6
2017-11-04T07:33:32.636Z,90.6
2017-11-04T07:34:35.757Z,90.6
2017-11-04T07:35:53.197Z,90.5
2017-11-04T07:36:55.563Z,90.6
2017-11-04T07:37:57.934Z,90.7
2017-11-04T07:39:00.311Z,90.7
2017-11-04T07:40:02.693Z,90.7
2017-11-04T07:41:05.407Z,90.8
2017-11-04T07:42:08.125Z,90.8
2017-11-04T07:43:10.491Z,90.9
2017-11-04T07:44:12.874Z,90.9
2017-11-04T07:45:15.246Z,90.9
2017-11-04T07:46:17.960Z,90.9
2017-11-04T07:47:20.346Z,90.9
2017-11-04T07:48:22.723Z,90.9
2017-11-04T07:49:25.454Z,90.9
2017-11-04T07:50:28.179Z,90.9
2017-11-04T07:51:30.545Z,91
2017-11-04T07:52:32.927Z,91
2017-11-04T07:53:35.658Z,91
2017-11-04T07:54:38.031Z,91
2017-11-04T07:55:40.394Z,91
2017-11-04T07:56:42.767Z,91
2017-11-04T07:57:45.153Z,91
2017-11-04T07:58:47.525Z,91.1
2017-11-04T07:59:49.919Z,91.2
2017-11-04T08:00:52.270Z,91.3
2017-11-04T08:01:54.646Z,91.2
2017-11-04T08:02:57.005Z,91.3
2017-11-04T08:03:59.386Z,91.4
2017-11-04T08:05:01.749Z,91.3
2017-11-04T08:06:04.131Z,91.3
2017-11-04T08:07:06.493Z,91.3
2017-11-04T08:08:08.872Z,91.4
2017-11-04T08:09:11.240Z,91.4
2017-11-04T08:10:13.617Z,91.4
2017-11-04T08:11:15.986Z,91.3
2017-11-04T08:12:18.361Z,91.2
2017-11-04T08:13:21.088Z,91.3
2017-11-04T08:14:23.464Z,91.1
2017-11-04T08:15:26.175Z,91.2
2017-11-04T08:16:28.571Z,91.2
2017-11-04T08:17:30.954Z,91.2
2017-11-04T08:18:33.374Z,91.2
2017-11-04T08:19:36.258Z,91.2
2017-11-04T08:20:39.535Z,91.2
2017-11-04T08:21:41.987Z,91.1
2017-11-04T08:22:44.444Z,91.2
2017-11-04T08:23:46.935Z,91.3
2017-11-04T08:24:50.077Z,91.3
2017-11-04T08:25:52.618Z,91.3
2017-11-04T08:26:58.946Z,91.3
2017-11-04T08:28:08.934Z,91.4
2017-11-04T08:29:12.881Z,91.4
2017-11-04T08:30:18.694Z,91.4
2017-11-04T08:31:23.697Z,91.4
2017-11-04T08:32:32.721Z,91.5
2017-11-04T08:33:42.738Z,91.5
2017-11-04T08:34:52.511Z,91.6
2017-11-04T08:36:02.517Z,91.7
2017-11-04T08:37:13.288Z,91.8
2017-11-04T08:38:25.241Z,91.8
2017-11-04T08:39:33.375Z,91.7
2017-11-04T08:40:43.033Z,91.7
2017-11-04T08:41:54.663Z,91.7
2017-11-04T08:43:04.895Z,91.7
2017-11-04T08:44:15.512Z,91.7
2017-11-04T08:45:26.641Z,91.7
2017-11-04T08:46:38.480Z,91.7
2017-11-04T08:47:50.487Z,91.6
2017-11-04T08:49:00.792Z,91.5
2017-11-04T08:50:12.834Z,91.5
2017-11-04T08:51:23.392Z,91.4
2017-11-04T08:52:32.915Z,91.4
2017-11-04T08:53:43.436Z,91.5
2017-11-04T08:54:53.028Z,91.4
2017-11-04T08:56:03.917Z,91.5
2017-11-04T08:57:15.504Z,91.4
2017-11-04T08:58:25.708Z,91.5
2017-11-04T08:59:33.731Z,91.6
2017-11-04T09:00:43.704Z,91.6
2017-11-04T09:01:54.152Z,91.5
2017-11-04T09:03:05.107Z,91.7
2017-11-04T09:04:14.747Z,91.7
2017-11-04T09:05:24.153Z,91.6
2017-11-04T09:06:34.698Z,91.7
2017-11-04T09:07:46.239Z,91.8
2017-11-04T09:08:58.021Z,92.1
2017-11-04T09:10:09.117Z,92.2
2017-11-04T09:11:19.155Z,92.3
2017-11-04T09:12:30.420Z,92.3
2017-11-04T09:13:40.675Z,92.4
2017-11-04T09:14:50.058Z,92.4
2017-11-04T09:16:02.794Z,92.3
2017-11-04T09:17:13.535Z,92.3
2017-11-04T09:18:23.718Z,92.3
2017-11-04T09:19:33.927Z,92.3
2017-11-04T09:20:45.052Z,92.3
2017-11-04T09:21:55.925Z,92.3
2017-11-04T09:23:06.036Z,92.3
2017-11-04T09:24:17.292Z,92.4
2017-11-04T09:25:28.311Z,92.4
2017-11-04T09:26:39.349Z,92.6
2017-11-04T09:27:49.923Z,92.7
2017-11-04T09:29:01.023Z,92.8
2017-11-04T09:30:11.614Z,92.8
2017-11-04T09:31:21.503Z,93
2017-11-04T09:33:00.838Z,93.1
2017-11-04T09:34:11.602Z,93.2
2017-11-04T09:35:23.306Z,93.4
2017-11-04T09:36:33.599Z,93.5
2017-11-04T09:37:42.596Z,93.6
2017-11-04T09:38:53.425Z,93.6
2017-11-04T09:40:03.056Z,93.6
2017-11-04T09:41:14.030Z,93.6
2017-11-04T09:42:22.755Z,93.6
2017-11-04T09:43:33.964Z,93.6
2017-11-04T09:44:43.775Z,93.8
2017-11-04T09:45:53.603Z,93.8
2017-11-04T09:47:03.940Z,93.7
2017-11-04T09:48:13.037Z,93.6
2017-11-04T09:49:23.223Z,93.6
2017-11-04T09:50:33.371Z,93.7
2017-11-04T09:51:43.224Z,93.7
2017-11-04T09:52:54.052Z,93.6
2017-11-04T09:54:04.395Z,93
2017-11-04T09:55:14.305Z,93
2017-11-04T09:56:25.229Z,93.3
2017-11-04T09:57:35.820Z,93.2
2017-11-04T09:58:45.322Z,92.9
2017-11-04T09:59:50.159Z,92.7
2017-11-04T10:01:01.224Z,92.8
2017-11-04T10:02:10.838Z,92.8
2017-11-04T10:03:20.879Z,92.9
2017-11-04T10:04:32.344Z,92.9
2017-11-04T10:05:42.951Z,93
2017-11-04T10:06:56.256Z,93.1
2017-11-04T10:08:07.189Z,93
2017-11-04T10:09:18.472Z,93.1
2017-11-04T10:10:28.329Z,93.2
2017-11-04T10:11:39.016Z,93.3
2017-11-04T10:12:45.926Z,93.5
2017-11-04T10:13:49.410Z,93.8
2017-11-04T10:14:54.211Z,93.8
2017-11-04T10:16:03.302Z,93.5
2017-11-04T10:17:13.065Z,93.3
2017-11-04T10:18:24.271Z,93.3
2017-11-04T10:19:33.941Z,93.1
2017-11-04T10:20:44.536Z,92.8
2017-11-04T10:21:54.922Z,93
2017-11-04T10:23:05.214Z,93.2
2017-11-04T10:24:15.233Z,92.9
2017-11-04T10:25:27.093Z,92.6
2017-11-04T10:26:35.479Z,92.3
2017-11-04T10:27:38.925Z,92.3
2017-11-04T10:28:41.498Z,92.2
2017-11-04T10:29:49.876Z,92.1
2017-11-04T10:30:59.575Z,92.1
2017-11-04T10:32:09.205Z,92
2017-11-04T10:33:17.754Z,91.7
2017-11-04T10:34:25.693Z,91.8
2017-11-04T10:35:31.109Z,91.8
2017-11-04T10:36:40.157Z,91.8
2017-11-04T10:37:49.933Z,91.8
2017-11-04T10:39:00.873Z,91.8
2017-11-04T10:40:11.002Z,92.7
2017-11-04T10:41:12.955Z,80.5
2017-11-04T10:42:22.727Z,72.2
2017-11-04T10:43:30.722Z,78
2017-11-04T10:44:39.149Z,85.6
2017-11-04T10:45:48.422Z,84.4
2017-11-04T10:46:55.382Z,82.2
2017-11-04T10:48:00.723Z,81.3
2017-11-04T10:49:04.730Z,81.3
2017-11-04T10:50:08.668Z,81.5
2017-11-04T10:51:10.784Z,82.3
2017-11-04T10:52:14.969Z,81.3
2017-11-04T10:53:18.087Z,79.6
2017-11-04T10:54:20.508Z,79.1
2017-11-04T10:55:22.532Z,80.5
2017-11-04T10:56:24.560Z,81.1
2017-11-04T10:57:26.948Z,81.4
2017-11-04T10:58:28.982Z,81.5
2017-11-04T10:59:31.004Z,78.6
2017-11-04T11:00:33.032Z,78.2
2017-11-04T11:01:35.059Z,79.7
2017-11-04T11:02:37.089Z,80.6
2017-11-04T11:03:39.127Z,79.6
2017-11-04T11:04:41.154Z,78.2
2017-11-04T11:05:43.181Z,77.7
2017-11-04T11:06:45.227Z,78.8
2017-11-04T11:07:47.251Z,80.2
2017-11-04T11:08:49.642Z,81.3
2017-11-04T11:09:51.673Z,81.9
2017-11-04T11:10:53.705Z,82.2
2017-11-04T11:11:55.728Z,80
2017-11-04T11:12:57.764Z,78.9
2017-11-04T11:13:59.790Z,79.7
2017-11-04T11:15:01.822Z,80.4
2017-11-04T11:16:04.194Z,80.8
2017-11-04T11:17:06.218Z,79.4
2017-11-04T11:18:08.257Z,79
2017-11-04T11:19:10.284Z,78.2
2017-11-04T11:20:12.297Z,77.6
2017-11-04T11:21:14.324Z,77.8
2017-11-04T11:22:16.340Z,79.8
2017-11-04T11:23:18.365Z,77.9
2017-11-04T11:24:20.400Z,77.5
2017-11-04T11:25:22.418Z,79.6
2017-11-04T11:26:24.447Z,78.8
2017-11-04T11:27:26.481Z,79
2017-11-04T11:28:28.501Z,78.4
2017-11-04T11:29:30.534Z,79
2017-11-04T11:30:32.565Z,79.7
2017-11-04T11:31:34.601Z,79.2
2017-11-04T11:32:36.638Z,77.5
2017-11-04T11:33:38.660Z,77.6
2017-11-04T11:34:40.712Z,77.6
2017-11-04T11:35:42.739Z,78.8
2017-11-04T11:36:44.756Z,78.1
2017-11-04T11:37:46.791Z,77.7
2017-11-04T11:38:48.825Z,76.9
2017-11-04T11:39:51.197Z,75.7
2017-11-04T11:40:53.225Z,75.8
2017-11-04T11:41:55.253Z,73.8
2017-11-04T11:42:57.284Z,72.9
2017-11-04T11:43:59.305Z,71.9
2017-11-04T11:45:01.336Z,70.6
2017-11-04T11:46:03.359Z,71.9
2017-11-04T11:47:05.393Z,71.4
2017-11-04T11:48:07.780Z,71.7
2017-11-04T11:49:09.810Z,71.6
2017-11-04T11:50:11.837Z,72.9
2017-11-04T11:51:13.864Z,73
2017-11-04T11:52:15.886Z,73.2
2017-11-04T11:53:17.913Z,73.2
2017-11-04T11:54:19.934Z,72.8
2017-11-04T11:55:21.971Z,72.5
2017-11-04T11:56:24.007Z,73.2
2017-11-04T11:57:26.035Z,73.9
2017-11-04T11:58:28.073Z,73.7
2017-11-04T11:59:30.096Z,72.7
2017-11-04T12:00:32.125Z,73.8
2017-11-04T12:01:34.164Z,74.1
2017-11-04T12:02:36.193Z,72.5
2017-11-04T12:03:38.229Z,72.3
2017-11-04T12:04:40.254Z,72.9
2017-11-04T12:05:42.633Z,72.9
2017-11-04T12:06:44.668Z,72.6
2017-11-04T12:07:46.682Z,72.7
2017-11-04T12:08:48.715Z,72.9
2017-11-04T12:09:51.102Z,73.5
2017-11-04T12:10:53.121Z,74.1
2017-11-04T12:11:55.141Z,74.6
2017-11-04T12:12:57.551Z,74.9
2017-11-04T12:13:59.573Z,74.8
2017-11-04T12:15:01.613Z,75.5
2017-11-04T12:16:03.634Z,75.8
2017-11-04T12:17:05.665Z,75.9
2017-11-04T12:18:07.687Z,76.4
2017-11-04T12:19:09.720Z,77
2017-11-04T12:20:11.747Z,76.6
2017-11-04T12:21:13.777Z,75.8
2017-11-04T12:22:15.808Z,75.1
2017-11-04T12:23:17.838Z,75.8
2017-11-04T12:24:19.867Z,76.2
2017-11-04T12:25:21.898Z,76.1
2017-11-04T12:26:23.923Z,74.9
2017-11-04T12:27:25.954Z,75.6
2017-11-04T12:28:27.976Z,75.5
2017-11-04T12:29:30.024Z,74.8
2017-11-04T12:30:32.043Z,74.4
2017-11-04T12:31:34.070Z,75.4
2017-11-04T12:32:36.105Z,75.7
2017-11-04T12:33:38.130Z,75.6
2017-11-04T12:34:40.163Z,76.4
2017-11-04T12:35:42.195Z,76.1
2017-11-04T12:36:44.215Z,75.8
2017-11-04T12:37:46.248Z,76.1
2017-11-04T12:38:48.279Z,76.5
2017-11-04T12:39:50.317Z,76.2
2017-11-04T12:40:52.321Z,75.6
2017-11-04T12:41:54.348Z,75.3
2017-11-04T12:42:56.375Z,74.9
2017-11-04T12:43:58.394Z,75.3
2017-11-04T12:45:00.425Z,75.3
2017-11-04T12:46:02.453Z,75
2017-11-04T12:47:04.484Z,75
2017-11-04T12:48:06.499Z,75.5
2017-11-04T12:49:08.525Z,76.2
2017-11-04T12:50:10.565Z,76.7
2017-11-04T12:51:12.581Z,76.6
2017-11-04T12:52:14.613Z,76.2
2017-11-04T12:53:16.646Z,76.3
2017-11-04T12:54:18.678Z,76.5
2017-11-04T12:55:20.688Z,76.8
2017-11-04T12:56:22.721Z,76.7
2017-11-04T12:57:24.760Z,77.2
2017-11-04T12:58:26.778Z,76.4
2017-11-04T12:59:28.803Z,76.5
2017-11-04T13:00:30.826Z,76.2
2017-11-04T13:01:32.854Z,76.6
2017-11-04T13:02:34.881Z,76.6
2017-11-04T13:03:36.908Z,76.7
2017-11-04T13:04:38.960Z,77.6
2017-11-04T13:05:40.973Z,76.8
2017-11-04T13:06:42.993Z,76.6
2017-11-04T13:07:45.015Z,76.4
2017-11-04T13:08:47.056Z,76.4
2017-11-04T13:09:49.443Z,76.7
2017-11-04T13:10:51.459Z,77.5
2017-11-04T13:11:53.488Z,77.6
2017-11-04T13:12:55.504Z,78.4
2017-11-04T13:13:57.542Z,77.9
2017-11-04T13:14:59.570Z,77.4
2017-11-04T13:16:01.946Z,76.8
2017-11-04T13:17:03.977Z,77.1
2017-11-04T13:18:05.997Z,76.5
2017-11-04T13:19:08.023Z,76.5
2017-11-04T13:20:10.046Z,77
2017-11-04T13:21:12.411Z,77
2017-11-04T13:22:14.452Z,78.1
2017-11-04T13:23:16.470Z,78.6
2017-11-04T13:24:18.502Z,77.7
2017-11-04T13:25:20.518Z,78
2017-11-04T13:26:22.548Z,78.8
2017-11-04T13:27:24.571Z,78.4
2017-11-04T13:28:26.592Z,77.6
2017-11-04T13:29:28.617Z,77.7
2017-11-04T13:30:30.656Z,77.9
2017-11-04T13:31:33.020Z,77.5
2017-11-04T13:32:35.069Z,77.3
2017-11-04T13:33:37.099Z,76.8
2017-11-04T13:34:39.484Z,77.5
2017-11-04T13:35:41.509Z,78.2
2017-11-04T13:36:43.528Z,78.8
2017-11-04T13:37:45.552Z,79.1
2017-11-04T13:38:47.588Z,77.8
2017-11-04T13:39:49.595Z,77.7
2017-11-04T13:40:51.633Z,77.2
2017-11-04T13:41:53.655Z,77.2
2017-11-04T13:42:55.676Z,77
2017-11-04T13:43:58.069Z,77.1
2017-11-04T13:45:00.099Z,77.8
2017-11-04T13:46:02.482Z,77
2017-11-04T13:47:04.509Z,78.2
2017-11-04T13:48:06.527Z,77.4
2017-11-04T13:49:08.563Z,76.9
2017-11-04T13:50:10.584Z,76.8
2017-11-04T13:51:12.981Z,78
2017-11-04T13:52:14.994Z,77.9
2017-11-04T13:53:17.024Z,76.9
2017-11-04T13:54:19.062Z,76.5
2017-11-04T13:55:21.091Z,76.2
2017-11-04T13:56:23.107Z,76.6
2017-11-04T13:57:25.128Z,76.4
2017-11-04T13:58:27.157Z,76.2
2017-11-04T13:59:29.195Z,75.9
2017-11-04T14:00:31.211Z,76.4
2017-11-04T14:01:33.252Z,76.6
2017-11-04T14:02:35.295Z,76.6
2017-11-04T14:03:37.316Z,77.4
2017-11-04T14:04:39.349Z,77.2
2017-11-04T14:05:41.375Z,77.6
2017-11-04T14:06:43.405Z,77.1
2017-11-04T14:07:45.429Z,77.4
2017-11-04T14:08:47.810Z,77.5
2017-11-04T14:09:49.841Z,77.4
2017-11-04T14:10:51.859Z,77.3
2017-11-04T14:11:53.883Z,77.6
2017-11-04T14:12:56.275Z,77
2017-11-04T14:13:58.296Z,77
2017-11-04T14:15:00.316Z,76.6